createdAt,value
2016-11-13T00:00:37.651Z,1012.52
2016-11-13T00:01:18.402Z,1012.49
2016-11-13T00:01:59.068Z,1012.52
2016-11-13T00:02:39.763Z,1012.49
2016-11-13T00:03:20.470Z,1012.54
2016-11-13T00:04:01.169Z,1012.54
2016-11-13T00:04:41.869Z,1012.55
2016-11-13T00:05:22.583Z,1012.5
2016-11-13T00:06:03.259Z,1012.56
2016-11-13T00:06:43.976Z,1012.57
2016-11-13T00:07:24.677Z,1012.53
2016-11-13T00:08:05.367Z,1012.51
2016-11-13T00:08:46.090Z,1012.51
2016-11-13T00:09:26.744Z,1012.54
2016-11-13T00:10:07.426Z,1012.52
2016-11-13T00:10:48.102Z,1012.55
2016-11-13T00:11:28.789Z,1012.51
2016-11-13T00:12:09.474Z,1012.52
2016-11-13T00:12:50.159Z,1012.51
2016-11-13T00:13:30.826Z,1012.5
2016-11-13T00:14:11.516Z,1012.5
2016-11-13T00:14:52.177Z,1012.52
2016-11-13T00:15:32.886Z,1012.52
2016-11-13T00:16:13.533Z,1012.51
2016-11-13T00:16:54.188Z,1012.51
2016-11-13T00:17:34.892Z,1012.54
2016-11-13T00:18:15.608Z,1012.55
2016-11-13T00:18:56.298Z,1012.54
2016-11-13T00:19:36.997Z,1012.53
2016-11-13T00:20:17.630Z,1012.49
2016-11-13T00:20:58.345Z,1012.46
2016-11-13T00:21:38.951Z,1012.55
2016-11-13T00:22:19.633Z,1012.49
2016-11-13T00:23:00.326Z,1012.49
2016-11-13T00:23:40.988Z,1012.5
2016-11-13T00:24:21.662Z,1012.48
2016-11-13T00:25:02.323Z,1012.5
2016-11-13T00:25:42.986Z,1012.44
2016-11-13T00:26:23.702Z,1012.47
2016-11-13T00:27:04.388Z,1012.43
2016-11-13T00:27:45.014Z,1012.44
2016-11-13T00:28:25.678Z,1012.46
2016-11-13T00:29:06.335Z,1012.41
2016-11-13T00:29:47.032Z,1012.44
2016-11-13T00:30:27.703Z,1012.43
2016-11-13T00:31:08.352Z,1012.47
2016-11-13T00:31:49.007Z,1012.43
2016-11-13T00:32:29.709Z,1012.4
2016-11-13T00:33:10.345Z,1012.4
2016-11-13T00:33:51.612Z,1012.42
2016-11-13T00:34:31.699Z,1012.42
2016-11-13T00:35:12.412Z,1012.36
2016-11-13T00:35:53.109Z,1012.41
2016-11-13T00:36:33.776Z,1012.41
2016-11-13T00:37:14.505Z,1012.37
2016-11-13T00:37:55.185Z,1012.36
2016-11-13T00:38:35.850Z,1012.35
2016-11-13T00:39:16.538Z,1012.36
2016-11-13T00:39:57.214Z,1012.35
2016-11-13T00:40:37.929Z,1012.37
2016-11-13T00:41:18.588Z,1012.38
2016-11-13T00:41:59.277Z,1012.35
2016-11-13T00:42:39.964Z,1012.38
2016-11-13T00:43:20.674Z,1012.34
2016-11-13T00:44:01.382Z,1012.34
2016-11-13T00:44:42.046Z,1012.3
2016-11-13T00:45:22.715Z,1012.33
2016-11-13T00:46:03.396Z,1012.31
2016-11-13T00:46:44.074Z,1012.31
2016-11-13T00:47:24.778Z,1012.32
2016-11-13T00:48:05.423Z,1012.3
2016-11-13T00:48:46.133Z,1012.31
2016-11-13T00:49:26.761Z,1012.25
2016-11-13T00:50:07.507Z,1012.23
2016-11-13T00:50:48.237Z,1012.28
2016-11-13T00:51:28.927Z,1012.28
2016-11-13T00:52:09.591Z,1012.26
2016-11-13T00:52:50.290Z,1012.27
2016-11-13T00:53:30.918Z,1012.26
2016-11-13T00:54:11.656Z,1012.24
2016-11-13T00:54:52.288Z,1012.26
2016-11-13T00:55:33.001Z,1012.26
2016-11-13T00:56:13.664Z,1012.29
2016-11-13T00:56:54.358Z,1012.29
2016-11-13T00:57:35.055Z,1012.26
2016-11-13T00:58:15.746Z,1012.25
2016-11-13T00:58:56.426Z,1012.28
2016-11-13T00:59:37.128Z,1012.28
2016-11-13T01:00:17.796Z,1012.26
2016-11-13T01:00:58.512Z,1012.25
2016-11-13T01:01:39.186Z,1012.27
2016-11-13T01:02:19.872Z,1012.28
2016-11-13T01:03:00.569Z,1012.27
2016-11-13T01:03:41.263Z,1012.26
2016-11-13T01:04:21.990Z,1012.25
2016-11-13T01:05:02.663Z,1012.23
2016-11-13T01:05:43.345Z,1012.24
2016-11-13T01:06:23.985Z,1012.25
2016-11-13T01:07:04.669Z,1012.25
2016-11-13T01:07:45.322Z,1012.22
2016-11-13T01:08:26.012Z,1012.2
2016-11-13T01:09:06.665Z,1012.22
2016-11-13T01:09:47.369Z,1012.22
2016-11-13T01:10:28.109Z,1012.24
2016-11-13T01:11:08.757Z,1012.21
2016-11-13T01:11:49.418Z,1012.22
2016-11-13T01:12:30.115Z,1012.24
2016-11-13T01:13:10.776Z,1012.2
2016-11-13T01:13:51.475Z,1012.23
2016-11-13T01:14:32.136Z,1012.23
2016-11-13T01:15:12.815Z,1012.26
2016-11-13T01:15:53.493Z,1012.23
2016-11-13T01:16:34.134Z,1012.25
2016-11-13T01:17:14.816Z,1012.23
2016-11-13T01:17:55.496Z,1012.21
2016-11-13T01:18:36.193Z,1012.17
2016-11-13T01:19:16.870Z,1012.16
2016-11-13T01:19:57.520Z,1012.18
2016-11-13T01:20:38.200Z,1012.16
2016-11-13T01:21:18.870Z,1012.16
2016-11-13T01:21:59.573Z,1012.11
2016-11-13T01:22:40.221Z,1012.13
2016-11-13T01:23:20.876Z,1012.11
2016-11-13T01:24:01.555Z,1012.12
2016-11-13T01:24:42.271Z,1012.12
2016-11-13T01:25:22.966Z,1012.13
2016-11-13T01:26:03.653Z,1012.1
2016-11-13T01:26:44.293Z,1012.09
2016-11-13T01:27:24.974Z,1012.08
2016-11-13T01:28:05.653Z,1012.09
2016-11-13T01:28:46.310Z,1012.07
2016-11-13T01:29:26.991Z,1012.05
2016-11-13T01:30:07.654Z,1012.1
2016-11-13T01:30:48.284Z,1012.07
2016-11-13T01:31:28.943Z,1012.06
2016-11-13T01:32:09.581Z,1012.1
2016-11-13T01:32:50.239Z,1012.08
2016-11-13T01:33:30.971Z,1012.05
2016-11-13T01:34:11.663Z,1012.04
2016-11-13T01:34:52.359Z,1012.1
2016-11-13T01:35:33.025Z,1012.06
2016-11-13T01:36:13.701Z,1012.05
2016-11-13T01:36:54.401Z,1012.05
2016-11-13T01:37:35.081Z,1012.08
2016-11-13T01:38:15.737Z,1012.08
2016-11-13T01:38:56.403Z,1012.08
2016-11-13T01:39:37.102Z,1012.05
2016-11-13T01:40:17.822Z,1012.04
2016-11-13T01:40:58.517Z,1012.04
2016-11-13T01:41:39.197Z,1012.07
2016-11-13T01:42:19.905Z,1012.08
2016-11-13T01:43:00.567Z,1012.07
2016-11-13T01:43:41.268Z,1012.09
2016-11-13T01:44:21.998Z,1012.07
2016-11-13T01:45:02.674Z,1012.08
2016-11-13T01:45:43.339Z,1012.02
2016-11-13T01:46:24.065Z,1012.05
2016-11-13T01:47:04.736Z,1012.07
2016-11-13T01:47:45.418Z,1012.09
2016-11-13T01:48:26.082Z,1012.07
2016-11-13T01:49:06.778Z,1012.07
2016-11-13T01:49:47.463Z,1012.06
2016-11-13T01:50:28.117Z,1012.04
2016-11-13T01:51:08.828Z,1012.04
2016-11-13T01:51:49.537Z,1012
2016-11-13T01:52:30.217Z,1012.02
2016-11-13T01:53:10.878Z,1012.02
2016-11-13T01:53:51.521Z,1011.98
2016-11-13T01:54:32.165Z,1012.03
2016-11-13T01:55:12.874Z,1012.01
2016-11-13T01:55:53.531Z,1012.05
2016-11-13T01:56:34.163Z,1012.02
2016-11-13T01:57:14.827Z,1012.03
2016-11-13T01:57:55.530Z,1012.03
2016-11-13T01:58:36.197Z,1012.04
2016-11-13T01:59:16.902Z,1011.99
2016-11-13T01:59:57.596Z,1012.02
2016-11-13T02:00:38.233Z,1011.99
2016-11-13T02:01:18.926Z,1012.01
2016-11-13T02:01:59.641Z,1012.03
2016-11-13T02:02:40.346Z,1011.99
2016-11-13T02:03:21.022Z,1012.01
2016-11-13T02:04:01.700Z,1012.01
2016-11-13T02:04:42.381Z,1011.96
2016-11-13T02:05:23.067Z,1011.99
2016-11-13T02:06:03.779Z,1011.98
2016-11-13T02:06:44.463Z,1011.96
2016-11-13T02:07:25.146Z,1012
2016-11-13T02:08:05.838Z,1011.99
2016-11-13T02:08:46.525Z,1011.97
2016-11-13T02:09:27.216Z,1011.99
2016-11-13T02:10:07.923Z,1011.96
2016-11-13T02:10:48.619Z,1011.97
2016-11-13T02:11:29.283Z,1011.95
2016-11-13T02:12:09.918Z,1011.95
2016-11-13T02:12:50.627Z,1011.94
2016-11-13T02:13:31.303Z,1011.94
2016-11-13T02:14:11.973Z,1011.96
2016-11-13T02:14:52.649Z,1011.94
2016-11-13T02:15:33.336Z,1011.93
2016-11-13T02:16:14.024Z,1011.92
2016-11-13T02:16:54.711Z,1011.93
2016-11-13T02:17:35.365Z,1011.92
2016-11-13T02:18:16.022Z,1011.91
2016-11-13T02:18:56.694Z,1011.89
2016-11-13T02:19:37.376Z,1011.89
2016-11-13T02:20:18.030Z,1011.86
2016-11-13T02:20:58.699Z,1011.86
2016-11-13T02:21:39.382Z,1011.84
2016-11-13T02:22:20.069Z,1011.85
2016-11-13T02:23:00.715Z,1011.85
2016-11-13T02:23:41.353Z,1011.8
2016-11-13T02:24:22.031Z,1011.82
2016-11-13T02:25:02.707Z,1011.8
2016-11-13T02:25:43.422Z,1011.81
2016-11-13T02:26:24.073Z,1011.82
2016-11-13T02:27:04.734Z,1011.79
2016-11-13T02:27:45.479Z,1011.79
2016-11-13T02:28:26.187Z,1011.74
2016-11-13T02:29:06.895Z,1011.79
2016-11-13T02:29:47.566Z,1011.79
2016-11-13T02:30:28.219Z,1011.77
2016-11-13T02:31:08.861Z,1011.76
2016-11-13T02:31:49.578Z,1011.76
2016-11-13T02:32:30.216Z,1011.77
2016-11-13T02:33:10.885Z,1011.75
2016-11-13T02:33:51.593Z,1011.77
2016-11-13T02:34:32.299Z,1011.75
2016-11-13T02:35:12.978Z,1011.73
2016-11-13T02:35:53.668Z,1011.7
2016-11-13T02:36:34.344Z,1011.75
2016-11-13T02:37:14.992Z,1011.71
2016-11-13T02:37:55.642Z,1011.7
2016-11-13T02:38:36.277Z,1011.72
2016-11-13T02:39:16.943Z,1011.72
2016-11-13T02:39:57.624Z,1011.69
2016-11-13T02:40:38.318Z,1011.68
2016-11-13T02:41:18.978Z,1011.72
2016-11-13T02:41:59.669Z,1011.69
2016-11-13T02:42:40.339Z,1011.66
2016-11-13T02:43:21.075Z,1011.7
2016-11-13T02:44:01.743Z,1011.67
2016-11-13T02:44:42.411Z,1011.66
2016-11-13T02:45:23.101Z,1011.68
2016-11-13T02:46:03.766Z,1011.64
2016-11-13T02:46:44.444Z,1011.66
2016-11-13T02:47:25.116Z,1011.67
2016-11-13T02:48:05.785Z,1011.69
2016-11-13T02:48:46.447Z,1011.65
2016-11-13T02:49:27.155Z,1011.62
2016-11-13T02:50:07.814Z,1011.64
2016-11-13T02:50:48.458Z,1011.63
2016-11-13T02:51:29.113Z,1011.64
2016-11-13T02:52:09.793Z,1011.65
2016-11-13T02:52:50.498Z,1011.65
2016-11-13T02:53:31.198Z,1011.64
2016-11-13T02:54:11.905Z,1011.66
2016-11-13T02:54:52.599Z,1011.65
2016-11-13T02:55:33.274Z,1011.66
2016-11-13T02:56:13.946Z,1011.68
2016-11-13T02:56:54.611Z,1011.68
2016-11-13T02:57:35.292Z,1011.65
2016-11-13T02:58:15.959Z,1011.64
2016-11-13T02:58:56.618Z,1011.64
2016-11-13T02:59:37.256Z,1011.64
2016-11-13T03:00:17.952Z,1011.65
2016-11-13T03:00:58.669Z,1011.65
2016-11-13T03:01:39.334Z,1011.66
2016-11-13T03:02:20.020Z,1011.67
2016-11-13T03:03:00.690Z,1011.65
2016-11-13T03:03:42.128Z,1011.66
2016-11-13T03:04:22.805Z,1011.69
2016-11-13T03:05:03.488Z,1011.7
2016-11-13T03:05:44.157Z,1011.73
2016-11-13T03:06:24.855Z,1011.76
2016-11-13T03:07:05.540Z,1011.74
2016-11-13T03:07:46.246Z,1011.78
2016-11-13T03:08:26.974Z,1011.78
2016-11-13T03:09:07.685Z,1011.81
2016-11-13T03:09:48.333Z,1011.82
2016-11-13T03:10:28.986Z,1011.83
2016-11-13T03:11:09.665Z,1011.84
2016-11-13T03:11:50.360Z,1011.83
2016-11-13T03:12:31.059Z,1011.82
2016-11-13T03:13:11.769Z,1011.82
2016-11-13T03:13:52.423Z,1011.85
2016-11-13T03:14:33.143Z,1011.84
2016-11-13T03:15:13.841Z,1011.85
2016-11-13T03:15:54.539Z,1011.85
2016-11-13T03:16:35.217Z,1011.86
2016-11-13T03:17:15.902Z,1011.85
2016-11-13T03:17:56.597Z,1011.85
2016-11-13T03:18:37.244Z,1011.85
2016-11-13T03:19:17.938Z,1011.89
2016-11-13T03:19:58.613Z,1011.85
2016-11-13T03:20:39.228Z,1011.89
2016-11-13T03:21:19.947Z,1011.87
2016-11-13T03:22:00.662Z,1011.86
2016-11-13T03:22:41.311Z,1011.89
2016-11-13T03:23:21.964Z,1011.91
2016-11-13T03:24:02.658Z,1011.85
2016-11-13T03:24:43.374Z,1011.86
2016-11-13T03:25:24.026Z,1011.89
2016-11-13T03:26:04.727Z,1011.9
2016-11-13T03:26:45.426Z,1011.89
2016-11-13T03:27:26.050Z,1011.85
2016-11-13T03:28:06.747Z,1011.83
2016-11-13T03:28:47.413Z,1011.8
2016-11-13T03:29:28.109Z,1011.82
2016-11-13T03:30:08.830Z,1011.82
2016-11-13T03:30:49.479Z,1011.82
2016-11-13T03:31:30.150Z,1011.84
2016-11-13T03:32:10.827Z,1011.81
2016-11-13T03:32:51.494Z,1011.8
2016-11-13T03:33:32.135Z,1011.81
2016-11-13T03:34:12.833Z,1011.8
2016-11-13T03:34:53.486Z,1011.81
2016-11-13T03:35:34.187Z,1011.82
2016-11-13T03:36:14.846Z,1011.83
2016-11-13T03:36:55.480Z,1011.84
2016-11-13T03:37:36.177Z,1011.85
2016-11-13T03:38:16.806Z,1011.84
2016-11-13T03:38:57.498Z,1011.88
2016-11-13T03:39:38.208Z,1011.87
2016-11-13T03:40:18.856Z,1011.87
2016-11-13T03:40:59.545Z,1011.87
2016-11-13T03:41:40.227Z,1011.89
2016-11-13T03:42:20.939Z,1011.9
2016-11-13T03:43:01.626Z,1011.9
2016-11-13T03:43:42.275Z,1011.9
2016-11-13T03:44:22.932Z,1011.94
2016-11-13T03:45:03.619Z,1011.94
2016-11-13T03:45:44.286Z,1011.92
2016-11-13T03:46:25.001Z,1011.92
2016-11-13T03:47:05.665Z,1011.95
2016-11-13T03:47:46.336Z,1011.95
2016-11-13T03:48:27.022Z,1011.91
2016-11-13T03:49:07.726Z,1011.91
2016-11-13T03:49:48.418Z,1011.93
2016-11-13T03:50:29.098Z,1011.95
2016-11-13T03:51:09.794Z,1011.95
2016-11-13T03:51:50.409Z,1011.94
2016-11-13T03:52:31.130Z,1011.94
2016-11-13T03:53:11.768Z,1011.97
2016-11-13T03:53:52.478Z,1011.97
2016-11-13T03:54:33.124Z,1011.96
2016-11-13T03:55:13.809Z,1011.97
2016-11-13T03:55:54.503Z,1011.95
2016-11-13T03:56:35.153Z,1011.98
2016-11-13T03:57:15.823Z,1011.96
2016-11-13T03:57:56.531Z,1011.94
2016-11-13T03:58:37.220Z,1011.95
2016-11-13T03:59:17.884Z,1011.95
2016-11-13T03:59:58.598Z,1011.94
2016-11-13T04:00:39.292Z,1011.94
2016-11-13T04:01:20.015Z,1011.93
2016-11-13T04:02:00.719Z,1011.96
2016-11-13T04:02:41.419Z,1011.94
2016-11-13T04:03:22.061Z,1011.93
2016-11-13T04:04:02.764Z,1011.92
2016-11-13T04:04:43.431Z,1011.93
2016-11-13T04:05:24.138Z,1011.92
2016-11-13T04:06:04.769Z,1011.92
2016-11-13T04:06:45.464Z,1011.91
2016-11-13T04:07:26.103Z,1011.91
2016-11-13T04:08:06.776Z,1011.89
2016-11-13T04:08:47.460Z,1011.91
2016-11-13T04:09:28.140Z,1011.9
2016-11-13T04:10:08.841Z,1011.89
2016-11-13T04:10:49.534Z,1011.87
2016-11-13T04:11:30.205Z,1011.87
2016-11-13T04:12:10.903Z,1011.92
2016-11-13T04:12:51.584Z,1011.92
2016-11-13T04:13:32.299Z,1011.93
2016-11-13T04:14:12.978Z,1011.93
2016-11-13T04:14:53.701Z,1011.94
2016-11-13T04:15:34.398Z,1011.95
2016-11-13T04:16:15.112Z,1011.98
2016-11-13T04:16:55.788Z,1011.9
2016-11-13T04:17:36.441Z,1011.95
2016-11-13T04:18:17.123Z,1011.97
2016-11-13T04:18:57.820Z,1011.95
2016-11-13T04:19:38.512Z,1011.98
2016-11-13T04:20:19.160Z,1011.97
2016-11-13T04:20:59.846Z,1012
2016-11-13T04:21:40.563Z,1012.01
2016-11-13T04:22:21.248Z,1012.02
2016-11-13T04:23:01.912Z,1012.02
2016-11-13T04:23:42.614Z,1012.03
2016-11-13T04:24:23.309Z,1012.07
2016-11-13T04:25:04.002Z,1012.05
2016-11-13T04:25:44.673Z,1012.04
2016-11-13T04:26:25.386Z,1012.07
2016-11-13T04:27:06.041Z,1012.06
2016-11-13T04:27:46.744Z,1012.07
2016-11-13T04:28:27.416Z,1012.06
2016-11-13T04:29:08.072Z,1012.04
2016-11-13T04:29:48.756Z,1012.06
2016-11-13T04:30:29.423Z,1012.06
2016-11-13T04:31:10.105Z,1012.07
2016-11-13T04:31:50.774Z,1012.06
2016-11-13T04:32:31.456Z,1012.05
2016-11-13T04:33:12.123Z,1012.06
2016-11-13T04:33:52.807Z,1012.07
2016-11-13T04:34:33.481Z,1012.06
2016-11-13T04:35:14.164Z,1012.04
2016-11-13T04:35:54.838Z,1012.07
2016-11-13T04:36:35.517Z,1012.05
2016-11-13T04:37:16.202Z,1012.09
2016-11-13T04:37:56.879Z,1012.12
2016-11-13T04:38:37.570Z,1012.06
2016-11-13T04:39:18.270Z,1012.09
2016-11-13T04:39:58.941Z,1012.1
2016-11-13T04:40:39.635Z,1012.14
2016-11-13T04:41:20.295Z,1012.13
2016-11-13T04:42:00.968Z,1012.11
2016-11-13T04:42:41.626Z,1012.13
2016-11-13T04:43:22.334Z,1012.13
2016-11-13T04:44:03.018Z,1012.14
2016-11-13T04:44:43.693Z,1012.11
2016-11-13T04:45:24.392Z,1012.13
2016-11-13T04:46:05.046Z,1012.11
2016-11-13T04:46:45.762Z,1012.18
2016-11-13T04:47:26.413Z,1012.17
2016-11-13T04:48:07.069Z,1012.22
2016-11-13T04:48:47.764Z,1012.17
2016-11-13T04:49:28.492Z,1012.16
2016-11-13T04:50:09.141Z,1012.18
2016-11-13T04:50:49.818Z,1012.18
2016-11-13T04:51:30.487Z,1012.2
2016-11-13T04:52:11.176Z,1012.19
2016-11-13T04:52:51.862Z,1012.2
2016-11-13T04:53:32.535Z,1012.22
2016-11-13T04:54:13.254Z,1012.21
2016-11-13T04:54:53.948Z,1012.23
2016-11-13T04:55:34.630Z,1012.26
2016-11-13T04:56:15.347Z,1012.25
2016-11-13T04:56:56.016Z,1012.26
2016-11-13T04:57:36.665Z,1012.25
2016-11-13T04:58:17.370Z,1012.26
2016-11-13T04:58:58.009Z,1012.26
2016-11-13T04:59:38.729Z,1012.25
2016-11-13T05:00:19.372Z,1012.27
2016-11-13T05:01:00.055Z,1012.27
2016-11-13T05:01:40.707Z,1012.27
2016-11-13T05:02:21.370Z,1012.3
2016-11-13T05:03:02.064Z,1012.26
2016-11-13T05:03:42.784Z,1012.28
2016-11-13T05:04:23.401Z,1012.3
2016-11-13T05:05:04.052Z,1012.3
2016-11-13T05:05:44.712Z,1012.3
2016-11-13T05:06:25.374Z,1012.28
2016-11-13T05:07:06.054Z,1012.28
2016-11-13T05:07:46.747Z,1012.3
2016-11-13T05:08:27.443Z,1012.26
2016-11-13T05:09:08.144Z,1012.31
2016-11-13T05:09:48.835Z,1012.33
2016-11-13T05:10:29.494Z,1012.31
2016-11-13T05:11:10.174Z,1012.34
2016-11-13T05:11:50.865Z,1012.33
2016-11-13T05:12:31.582Z,1012.32
2016-11-13T05:13:12.273Z,1012.32
2016-11-13T05:13:52.975Z,1012.35
2016-11-13T05:14:33.652Z,1012.36
2016-11-13T05:15:14.344Z,1012.37
2016-11-13T05:15:55.040Z,1012.4
2016-11-13T05:16:35.684Z,1012.43
2016-11-13T05:17:16.389Z,1012.41
2016-11-13T05:17:57.044Z,1012.42
2016-11-13T05:18:37.715Z,1012.43
2016-11-13T05:19:18.436Z,1012.42
2016-11-13T05:19:59.145Z,1012.42
2016-11-13T05:20:39.772Z,1012.43
2016-11-13T05:21:20.444Z,1012.46
2016-11-13T05:22:01.113Z,1012.45
2016-11-13T05:22:41.788Z,1012.46
2016-11-13T05:23:22.500Z,1012.46
2016-11-13T05:24:03.130Z,1012.47
2016-11-13T05:24:43.850Z,1012.48
2016-11-13T05:25:24.561Z,1012.49
2016-11-13T05:26:05.228Z,1012.47
2016-11-13T05:26:45.884Z,1012.46
2016-11-13T05:27:26.531Z,1012.48
2016-11-13T05:28:07.188Z,1012.46
2016-11-13T05:28:47.888Z,1012.48
2016-11-13T05:29:28.583Z,1012.46
2016-11-13T05:30:09.263Z,1012.49
2016-11-13T05:30:49.928Z,1012.45
2016-11-13T05:31:30.618Z,1012.44
2016-11-13T05:32:11.317Z,1012.45
2016-11-13T05:32:51.974Z,1012.45
2016-11-13T05:33:32.611Z,1012.46
2016-11-13T05:34:13.269Z,1012.49
2016-11-13T05:34:53.917Z,1012.5
2016-11-13T05:35:34.568Z,1012.49
2016-11-13T05:36:15.292Z,1012.5
2016-11-13T05:36:55.964Z,1012.5
2016-11-13T05:37:36.680Z,1012.53
2016-11-13T05:38:17.381Z,1012.51
2016-11-13T05:38:58.068Z,1012.51
2016-11-13T05:39:38.680Z,1012.55
2016-11-13T05:40:19.336Z,1012.51
2016-11-13T05:41:00.074Z,1012.57
2016-11-13T05:41:40.739Z,1012.52
2016-11-13T05:42:21.445Z,1012.51
2016-11-13T05:43:02.156Z,1012.53
2016-11-13T05:43:42.813Z,1012.52
2016-11-13T05:44:23.532Z,1012.5
2016-11-13T05:45:04.148Z,1012.5
2016-11-13T05:45:44.832Z,1012.52
2016-11-13T05:46:25.483Z,1012.5
2016-11-13T05:47:06.135Z,1012.49
2016-11-13T05:47:46.802Z,1012.52
2016-11-13T05:48:27.461Z,1012.53
2016-11-13T05:49:08.129Z,1012.54
2016-11-13T05:49:48.801Z,1012.55
2016-11-13T05:50:29.473Z,1012.6
2016-11-13T05:51:10.151Z,1012.57
2016-11-13T05:51:50.853Z,1012.59
2016-11-13T05:52:31.499Z,1012.54
2016-11-13T05:53:12.181Z,1012.54
2016-11-13T05:53:52.846Z,1012.56
2016-11-13T05:54:33.502Z,1012.57
2016-11-13T05:55:14.222Z,1012.52
2016-11-13T05:55:54.931Z,1012.55
2016-11-13T05:56:35.584Z,1012.55
2016-11-13T05:57:16.267Z,1012.59
2016-11-13T05:57:56.957Z,1012.56
2016-11-13T05:58:37.634Z,1012.6
2016-11-13T05:59:18.319Z,1012.61
2016-11-13T05:59:58.991Z,1012.6
2016-11-13T06:00:39.673Z,1012.61
2016-11-13T06:01:20.284Z,1012.66
2016-11-13T06:02:00.950Z,1012.62
2016-11-13T06:02:41.641Z,1012.61
2016-11-13T06:03:22.295Z,1012.61
2016-11-13T06:04:02.985Z,1012.59
2016-11-13T06:04:43.634Z,1012.61
2016-11-13T06:05:24.312Z,1012.61
2016-11-13T06:06:05.022Z,1012.63
2016-11-13T06:06:45.690Z,1012.62
2016-11-13T06:07:26.334Z,1012.64
2016-11-13T06:08:07.004Z,1012.62
2016-11-13T06:08:47.714Z,1012.67
2016-11-13T06:09:28.429Z,1012.64
2016-11-13T06:10:09.070Z,1012.65
2016-11-13T06:10:49.749Z,1012.65
2016-11-13T06:11:30.393Z,1012.68
2016-11-13T06:12:11.017Z,1012.64
2016-11-13T06:12:51.689Z,1012.61
2016-11-13T06:13:32.349Z,1012.68
2016-11-13T06:14:13.012Z,1012.66
2016-11-13T06:14:53.656Z,1012.68
2016-11-13T06:15:34.373Z,1012.66
2016-11-13T06:16:15.034Z,1012.67
2016-11-13T06:16:55.711Z,1012.68
2016-11-13T06:17:36.392Z,1012.68
2016-11-13T06:18:17.108Z,1012.7
2016-11-13T06:18:57.747Z,1012.71
2016-11-13T06:19:38.406Z,1012.73
2016-11-13T06:20:19.114Z,1012.72
2016-11-13T06:20:59.789Z,1012.75
2016-11-13T06:21:40.469Z,1012.76
2016-11-13T06:22:21.121Z,1012.77
2016-11-13T06:23:01.811Z,1012.75
2016-11-13T06:23:42.475Z,1012.76
2016-11-13T06:24:23.140Z,1012.77
2016-11-13T06:25:04.814Z,1012.76
2016-11-13T06:25:44.510Z,1012.78
2016-11-13T06:26:25.198Z,1012.78
2016-11-13T06:27:05.864Z,1012.8
2016-11-13T06:27:46.561Z,1012.79
2016-11-13T06:28:27.201Z,1012.83
2016-11-13T06:29:07.917Z,1012.86
2016-11-13T06:29:48.603Z,1012.86
2016-11-13T06:30:29.279Z,1012.88
2016-11-13T06:31:09.973Z,1012.84
2016-11-13T06:31:50.665Z,1012.87
2016-11-13T06:32:31.356Z,1012.88
2016-11-13T06:33:12.035Z,1012.87
2016-11-13T06:33:52.686Z,1012.89
2016-11-13T06:34:33.360Z,1012.89
2016-11-13T06:35:14.065Z,1012.93
2016-11-13T06:35:54.745Z,1012.93
2016-11-13T06:36:35.398Z,1012.93
2016-11-13T06:37:16.078Z,1012.93
2016-11-13T06:37:56.726Z,1012.95
2016-11-13T06:38:37.392Z,1012.94
2016-11-13T06:39:18.088Z,1012.94
2016-11-13T06:39:58.730Z,1012.97
2016-11-13T06:40:39.396Z,1012.99
2016-11-13T06:41:20.101Z,1012.97
2016-11-13T06:42:00.792Z,1012.97
2016-11-13T06:42:41.501Z,1012.98
2016-11-13T06:43:22.154Z,1012.99
2016-11-13T06:44:02.830Z,1013
2016-11-13T06:44:43.479Z,1013.02
2016-11-13T06:45:24.181Z,1012.98
2016-11-13T06:46:05.752Z,1012.99
2016-11-13T06:46:46.438Z,1013
2016-11-13T06:47:27.099Z,1012.99
2016-11-13T06:48:07.821Z,1012.99
2016-11-13T06:48:48.555Z,1012.96
2016-11-13T06:49:29.201Z,1013.01
2016-11-13T06:50:09.901Z,1012.98
2016-11-13T06:50:50.562Z,1013.02
2016-11-13T06:51:31.202Z,1013.01
2016-11-13T06:52:11.891Z,1013.03
2016-11-13T06:52:52.558Z,1013
2016-11-13T06:53:33.221Z,1013.02
2016-11-13T06:54:13.904Z,1013.06
2016-11-13T06:54:54.569Z,1013.03
2016-11-13T06:55:35.205Z,1013.03
2016-11-13T06:56:15.878Z,1013.05
2016-11-13T06:56:56.550Z,1013.05
2016-11-13T06:57:37.253Z,1013.05
2016-11-13T06:58:17.897Z,1013.07
2016-11-13T06:58:58.561Z,1013.07
2016-11-13T06:59:39.259Z,1013.1
2016-11-13T07:00:19.956Z,1013.07
2016-11-13T07:01:00.605Z,1013.1
2016-11-13T07:01:41.303Z,1013.09
2016-11-13T07:02:21.952Z,1013.09
2016-11-13T07:03:02.647Z,1013.14
2016-11-13T07:03:43.346Z,1013.12
2016-11-13T07:04:24.024Z,1013.12
2016-11-13T07:05:04.693Z,1013.13
2016-11-13T07:05:45.367Z,1013.14
2016-11-13T07:06:26.016Z,1013.17
2016-11-13T07:07:06.655Z,1013.18
2016-11-13T07:07:47.345Z,1013.17
2016-11-13T07:08:28.010Z,1013.15
2016-11-13T07:09:08.632Z,1013.15
2016-11-13T07:09:49.333Z,1013.18
2016-11-13T07:10:30.004Z,1013.19
2016-11-13T07:11:10.673Z,1013.15
2016-11-13T07:11:51.407Z,1013.17
2016-11-13T07:12:32.126Z,1013.18
2016-11-13T07:13:12.822Z,1013.17
2016-11-13T07:13:53.537Z,1013.19
2016-11-13T07:14:34.207Z,1013.23
2016-11-13T07:15:14.881Z,1013.23
2016-11-13T07:15:55.575Z,1013.21
2016-11-13T07:16:36.246Z,1013.22
2016-11-13T07:17:16.896Z,1013.23
2016-11-13T07:17:57.580Z,1013.24
2016-11-13T07:18:38.261Z,1013.26
2016-11-13T07:19:18.930Z,1013.24
2016-11-13T07:19:59.583Z,1013.27
2016-11-13T07:20:40.231Z,1013.28
2016-11-13T07:21:20.946Z,1013.28
2016-11-13T07:22:01.626Z,1013.32
2016-11-13T07:22:42.274Z,1013.31
2016-11-13T07:23:22.963Z,1013.31
2016-11-13T07:24:03.662Z,1013.35
2016-11-13T07:24:44.333Z,1013.31
2016-11-13T07:25:24.991Z,1013.34
2016-11-13T07:26:05.669Z,1013.33
2016-11-13T07:26:46.328Z,1013.34
2016-11-13T07:27:27.004Z,1013.34
2016-11-13T07:28:07.717Z,1013.35
2016-11-13T07:28:48.401Z,1013.36
2016-11-13T07:29:29.077Z,1013.33
2016-11-13T07:30:09.754Z,1013.37
2016-11-13T07:30:50.425Z,1013.42
2016-11-13T07:31:31.152Z,1013.38
2016-11-13T07:32:11.814Z,1013.36
2016-11-13T07:32:52.508Z,1013.41
2016-11-13T07:33:33.186Z,1013.4
2016-11-13T07:34:13.859Z,1013.43
2016-11-13T07:34:54.591Z,1013.45
2016-11-13T07:35:35.276Z,1013.43
2016-11-13T07:36:15.949Z,1013.44
2016-11-13T07:36:56.636Z,1013.42
2016-11-13T07:37:37.306Z,1013.45
2016-11-13T07:38:17.985Z,1013.42
2016-11-13T07:38:58.655Z,1013.43
2016-11-13T07:39:39.320Z,1013.49
2016-11-13T07:40:20.025Z,1013.5
2016-11-13T07:41:00.690Z,1013.51
2016-11-13T07:41:41.392Z,1013.5
2016-11-13T07:42:22.098Z,1013.49
2016-11-13T07:43:02.745Z,1013.49
2016-11-13T07:43:43.422Z,1013.49
2016-11-13T07:44:24.104Z,1013.5
2016-11-13T07:45:04.773Z,1013.5
2016-11-13T07:45:45.436Z,1013.52
2016-11-13T07:46:26.141Z,1013.52
2016-11-13T07:47:06.843Z,1013.52
2016-11-13T07:47:47.502Z,1013.48
2016-11-13T07:48:28.226Z,1013.5
2016-11-13T07:49:08.910Z,1013.51
2016-11-13T07:49:49.577Z,1013.5
2016-11-13T07:50:30.277Z,1013.52
2016-11-13T07:51:10.967Z,1013.51
2016-11-13T07:51:51.626Z,1013.5
2016-11-13T07:52:32.261Z,1013.54
2016-11-13T07:53:12.932Z,1013.51
2016-11-13T07:53:53.600Z,1013.55
2016-11-13T07:54:34.288Z,1013.55
2016-11-13T07:55:14.959Z,1013.55
2016-11-13T07:55:55.676Z,1013.55
2016-11-13T07:56:36.376Z,1013.6
2016-11-13T07:57:17.049Z,1013.58
2016-11-13T07:57:57.748Z,1013.57
2016-11-13T07:58:38.423Z,1013.57
2016-11-13T07:59:19.173Z,1013.59
2016-11-13T07:59:59.859Z,1013.58
2016-11-13T08:00:40.538Z,1013.62
2016-11-13T08:01:21.184Z,1013.6
2016-11-13T08:02:01.881Z,1013.62
2016-11-13T08:02:42.546Z,1013.62
2016-11-13T08:03:23.266Z,1013.61
2016-11-13T08:04:03.958Z,1013.64
2016-11-13T08:04:44.625Z,1013.62
2016-11-13T08:05:25.315Z,1013.65
2016-11-13T08:06:05.964Z,1013.67
2016-11-13T08:06:46.665Z,1013.65
2016-11-13T08:07:27.338Z,1013.67
2016-11-13T08:08:08.030Z,1013.65
2016-11-13T08:08:48.698Z,1013.67
2016-11-13T08:09:29.379Z,1013.69
2016-11-13T08:10:10.071Z,1013.66
2016-11-13T08:10:50.748Z,1013.67
2016-11-13T08:11:31.483Z,1013.72
2016-11-13T08:12:12.145Z,1013.73
2016-11-13T08:12:52.785Z,1013.69
2016-11-13T08:13:33.497Z,1013.71
2016-11-13T08:14:14.179Z,1013.71